sim
Sign-in with your pilot id or email,
or register
Callsign
Passwort

Schedule Details

Flight Number: DLH2052 (1)
Departure: Munich Airport (EDDM) at 19:30
Arrival: Berlin Tegel Airport (EDDT) at 20:40
Route: Lufthansa Passenger Schedule. Enter filed route here before submitting Pirep.

Weather Information
Getting current METAR information for EDDM 010750Z 10003KT 080V140 2000 1100NE R08L/P2000N R08R/0900N BCFG FEW001 SCT003 07/07 Q1008 BECMG 5000
Getting current METAR information for EDDT 010750Z VRB02KT 1000 R08L/1500D R08R/1900N BR BKN001 10/10 Q1008 TEMPO 2500 BR BKN004

Schedule Frequency

Route Map